Time;durP1;ratioP1;P1;durP2;ratioP2;P2;SDS_P1;SDS_P2;PMS_P1;PMS_P2;Temp;Humidity;BMP_temperature;BMP_pressure;BME280_temperature;BME280_humidity;BME280_pressure;Samples;Min_cycle;Max_cycle;Signal;HPM_P1;HPM_P2
2023/12/28 00:01:50;;;;;;;1.00;0.90;;;19.50;47.10;;;;;;4985477;28;20314;-76
2023/12/28 00:04:16;;;;;;;1.30;1.20;;;19.50;47.10;;;;;;4989638;28;20219;-74
2023/12/28 00:06:42;;;;;;;1.20;1.10;;;19.50;47.10;;;;;;4988727;28;20742;-76
2023/12/28 00:09:09;;;;;;;1.70;1.60;;;19.50;47.20;;;;;;4992134;28;20416;-73
2023/12/28 00:11:35;;;;;;;2.20;1.13;;;19.50;47.10;;;;;;4977661;28;20234;-73
2023/12/28 00:14:01;;;;;;;1.27;1.17;;;19.50;47.10;;;;;;4977175;28;20459;-71
2023/12/28 00:16:27;;;;;;;1.93;1.10;;;19.50;47.10;;;;;;4985340;28;20306;-72
2023/12/28 00:18:52;;;;;;;1.23;1.13;;;19.50;47.10;;;;;;4975684;28;20220;-73
2023/12/28 00:21:18;;;;;;;1.53;1.00;;;19.50;47.10;;;;;;4987657;28;20434;-73
2023/12/28 00:23:43;;;;;;;1.27;1.10;;;19.50;47.10;;;;;;4994333;28;20731;-73
2023/12/28 00:26:09;;;;;;;1.30;1.20;;;19.50;47.10;;;;;;4990106;28;20215;-73
2023/12/28 00:28:35;;;;;;;1.40;1.20;;;19.50;47.20;;;;;;4982996;28;20246;-71
2023/12/28 00:31:01;;;;;;;0.90;0.90;;;19.50;47.10;;;;;;4993104;28;20338;-72
2023/12/28 00:33:26;;;;;;;1.30;1.20;;;19.50;47.00;;;;;;4992143;28;20592;-71
2023/12/28 00:35:52;;;;;;;1.17;1.07;;;19.50;47.10;;;;;;4989995;28;20228;-73
2023/12/28 00:38:17;;;;;;;1.33;1.00;;;19.50;47.10;;;;;;4989414;28;20318;-73
2023/12/28 00:40:43;;;;;;;1.20;1.10;;;19.50;47.00;;;;;;4993013;28;20775;-71
2023/12/28 00:43:08;;;;;;;1.50;1.40;;;19.50;47.10;;;;;;4986610;28;20216;-72
2023/12/28 00:45:34;;;;;;;1.10;1.00;;;19.50;47.10;;;;;;4994834;28;20211;-74
2023/12/28 00:47:59;;;;;;;1.20;1.10;;;19.50;47.10;;;;;;4984754;28;21647;-71
2023/12/28 00:50:27;;;;;;;1.10;1.00;;;19.50;47.00;;;;;;4975120;28;20246;-72
2023/12/28 00:52:52;;;;;;;1.10;1.00;;;19.50;47.10;;;;;;4988953;28;20219;-71
2023/12/28 00:55:18;;;;;;;1.20;1.10;;;19.50;47.00;;;;;;4966125;28;20447;-72
2023/12/28 00:57:43;;;;;;;1.20;1.10;;;19.50;47.00;;;;;;4982517;28;20289;-72
2023/12/28 01:00:09;;;;;;;1.00;1.00;;;19.50;47.00;;;;;;4972831;28;20341;-71
2023/12/28 01:02:35;;;;;;;1.10;1.00;;;19.50;47.00;;;;;;4989810;28;20246;-73
2023/12/28 01:05:01;;;;;;;1.13;1.03;;;19.50;47.00;;;;;;4985111;28;20588;-72
2023/12/28 01:07:26;;;;;;;1.20;1.10;;;19.50;47.00;;;;;;4981378;28;20223;-72
2023/12/28 01:09:52;;;;;;;1.00;1.00;;;19.50;47.00;;;;;;4988008;28;20822;-73
2023/12/28 01:12:17;;;;;;;1.00;1.00;;;19.50;47.00;;;;;;4988630;28;20224;-71
2023/12/28 01:14:43;;;;;;;1.50;0.97;;;19.50;47.00;;;;;;4967302;28;20223;-71
2023/12/28 01:17:09;;;;;;;1.20;1.10;;;19.50;47.00;;;;;;4979193;28;20240;-71
2023/12/28 01:19:34;;;;;;;1.20;1.10;;;19.50;47.00;;;;;;4988695;28;20706;-71
2023/12/28 01:22:00;;;;;;;1.40;1.30;;;19.50;47.00;;;;;;4980763;28;20780;-72
2023/12/28 01:24:26;;;;;;;1.83;1.20;;;19.50;47.00;;;;;;4971074;28;20248;-71
2023/12/28 01:26:52;;;;;;;1.20;1.10;;;19.50;47.00;;;;;;4993786;28;20737;-71
2023/12/28 01:29:17;;;;;;;1.43;1.20;;;19.50;47.00;;;;;;4990314;28;20440;-72
2023/12/28 01:31:43;;;;;;;1.03;1.00;;;19.50;47.00;;;;;;4986591;28;20223;-71
2023/12/28 01:34:09;;;;;;;1.20;1.10;;;19.50;47.00;;;;;;4989333;28;21149;-71
2023/12/28 01:36:35;;;;;;;1.40;1.30;;;19.50;46.90;;;;;;4980291;28;20315;-71
2023/12/28 01:39:00;;;;;;;1.20;1.10;;;19.50;47.00;;;;;;4988790;28;20683;-73
2023/12/28 01:41:26;;;;;;;1.10;1.00;;;19.50;47.00;;;;;;4984199;28;20579;-72
2023/12/28 01:43:51;;;;;;;1.10;1.00;;;19.50;47.00;;;;;;4989371;28;20229;-72
2023/12/28 01:46:19;;;;;;;1.20;1.10;;;19.50;47.00;;;;;;4987443;28;20222;-70
2023/12/28 01:48:46;;;;;;;1.17;1.07;;;19.50;47.00;;;;;;4989601;28;20227;-71
2023/12/28 01:51:14;;;;;;;1.20;1.10;;;19.50;46.90;;;;;;4983494;28;20473;-71
2023/12/28 01:53:40;;;;;;;1.10;1.00;;;19.50;47.00;;;;;;4992666;28;20448;-72
2023/12/28 01:56:06;;;;;;;1.23;1.13;;;19.50;46.90;;;;;;4972880;28;21207;-71
2023/12/28 01:58:33;;;;;;;1.10;1.00;;;19.50;47.00;;;;;;4991370;28;20463;-72
2023/12/28 02:00:59;;;;;;;1.00;0.90;;;19.50;47.00;;;;;;4988527;28;20440;-71
2023/12/28 02:03:25;;;;;;;1.23;1.13;;;19.50;46.90;;;;;;4993993;28;20531;-72
2023/12/28 02:05:51;;;;;;;1.27;1.17;;;19.50;46.90;;;;;;4963494;28;20231;-72
2023/12/28 02:08:17;;;;;;;1.03;1.00;;;19.50;46.90;;;;;;4982261;28;20232;-71
2023/12/28 02:10:43;;;;;;;1.10;1.00;;;19.50;47.00;;;;;;4983306;28;20462;-70
2023/12/28 02:13:09;;;;;;;1.10;1.00;;;19.50;46.90;;;;;;4990275;28;20250;-71
2023/12/28 02:15:35;;;;;;;1.00;1.00;;;19.50;47.00;;;;;;4983314;28;20224;-71
2023/12/28 02:18:21;;;;;;;1.87;1.03;;;19.50;47.00;;;;;;4986380;28;20532;-71
2023/12/28 02:20:48;;;;;;;0.97;0.93;;;19.50;46.90;;;;;;4983376;28;20299;-71
2023/12/28 02:23:14;;;;;;;1.10;1.00;;;19.50;46.90;;;;;;4986577;28;21046;-70
2023/12/28 02:25:39;;;;;;;1.00;1.00;;;19.50;46.90;;;;;;4989958;28;20493;-71
2023/12/28 02:28:05;;;;;;;1.13;1.03;;;19.50;47.00;;;;;;4988797;28;20694;-71
2023/12/28 02:30:31;;;;;;;1.00;1.00;;;19.50;47.00;;;;;;4988872;28;20238;-71
2023/12/28 02:32:59;;;;;;;1.10;1.00;;;19.50;47.00;;;;;;4991411;28;20223;-71
2023/12/28 02:35:43;;;;;;;0.90;0.90;;;19.50;47.00;;;;;;4979311;28;20235;-70
2023/12/28 02:38:13;;;;;;;0.80;0.80;;;19.50;46.90;;;;;;4990179;28;20471;-73
2023/12/28 02:40:43;;;;;;;0.90;0.90;;;19.50;46.90;;;;;;4985358;28;20436;-72
2023/12/28 02:43:09;;;;;;;1.33;1.23;;;19.50;46.90;;;;;;4984328;28;20462;-70
2023/12/28 02:45:35;;;;;;;1.10;1.00;;;19.50;46.90;;;;;;4980407;28;20793;-71
2023/12/28 02:48:02;;;;;;;1.10;1.00;;;19.50;46.90;;;;;;4982870;28;20440;-73
2023/12/28 02:50:30;;;;;;;1.10;1.00;;;19.50;47.00;;;;;;4975373;28;20529;-72
2023/12/28 02:52:56;;;;;;;1.10;1.00;;;19.50;47.00;;;;;;4974548;28;20441;-72
2023/12/28 02:55:21;;;;;;;1.13;1.03;;;19.50;47.00;;;;;;4989131;28;20444;-72
2023/12/28 02:57:47;;;;;;;1.20;1.10;;;19.50;46.90;;;;;;4976391;28;20457;-72
2023/12/28 03:00:13;;;;;;;1.07;1.00;;;19.50;46.90;;;;;;4992469;28;20967;-73
2023/12/28 03:02:38;;;;;;;1.07;1.00;;;19.50;46.90;;;;;;4967725;28;20694;-73
2023/12/28 03:05:05;;;;;;;1.13;1.03;;;19.50;46.90;;;;;;4977719;28;20477;-73
2023/12/28 03:07:32;;;;;;;1.13;1.03;;;19.50;46.90;;;;;;4989822;28;20419;-73
2023/12/28 03:09:57;;;;;;;1.10;1.00;;;19.50;46.90;;;;;;4988385;28;20513;-74
2023/12/28 03:12:23;;;;;;;1.10;1.00;;;19.50;46.90;;;;;;4997228;28;20937;-73
2023/12/28 03:14:48;;;;;;;0.87;0.87;;;19.50;46.90;;;;;;4981209;28;20294;-77
2023/12/28 03:17:14;;;;;;;1.10;1.00;;;19.50;46.90;;;;;;4990933;28;20219;-76
2023/12/28 03:19:39;;;;;;;1.10;1.00;;;19.50;46.90;;;;;;4984265;28;20275;-75
2023/12/28 03:22:05;;;;;;;1.10;1.00;;;19.50;46.90;;;;;;4997152;28;20223;-76
2023/12/28 03:24:31;;;;;;;1.00;0.90;;;19.50;46.90;;;;;;4987230;28;20319;-76
2023/12/28 03:26:56;;;;;;;1.20;1.10;;;19.50;46.90;;;;;;4981598;28;20331;-76
2023/12/28 03:29:22;;;;;;;1.20;1.10;;;19.50;46.90;;;;;;4977832;28;20675;-74
2023/12/28 03:31:48;;;;;;;1.10;1.00;;;19.50;46.90;;;;;;4984910;28;21390;-76
2023/12/28 03:34:13;;;;;;;1.20;1.10;;;19.50;46.90;;;;;;4990519;28;20308;-76
2023/12/28 03:36:39;;;;;;;1.10;1.00;;;19.50;46.90;;;;;;4994014;28;20310;-74
2023/12/28 03:39:05;;;;;;;1.53;0.90;;;19.50;46.90;;;;;;4983153;28;20236;-75
2023/12/28 03:41:31;;;;;;;0.90;0.90;;;19.50;46.90;;;;;;4967704;28;20256;-76
2023/12/28 03:43:56;;;;;;;0.87;0.87;;;19.50;46.90;;;;;;4981704;28;20560;-75
2023/12/28 03:46:22;;;;;;;1.00;1.00;;;19.50;46.90;;;;;;4976138;28;20302;-76
2023/12/28 03:48:48;;;;;;;1.10;1.00;;;19.50;46.90;;;;;;4958287;28;20228;-73
2023/12/28 03:51:15;;;;;;;1.10;1.00;;;19.50;46.90;;;;;;4983545;28;20679;-76
2023/12/28 03:53:41;;;;;;;1.00;0.90;;;19.50;46.80;;;;;;4985210;28;20638;-74
2023/12/28 03:56:06;;;;;;;0.93;0.90;;;19.50;46.90;;;;;;4984141;28;20432;-76
2023/12/28 03:58:32;;;;;;;1.10;1.00;;;19.50;46.90;;;;;;4981990;28;20671;-75
2023/12/28 04:00:57;;;;;;;1.07;0.97;;;19.50;46.90;;;;;;4967314;28;20280;-76
2023/12/28 04:03:23;;;;;;;1.03;0.93;;;19.50;46.90;;;;;;4985653;28;20230;-76
2023/12/28 04:05:48;;;;;;;1.10;1.07;;;19.50;46.80;;;;;;4990446;28;20321;-75
2023/12/28 04:08:14;;;;;;;1.30;1.20;;;19.50;46.90;;;;;;4971683;28;20270;-75
2023/12/28 04:10:39;;;;;;;1.10;1.00;;;19.50;46.90;;;;;;4972403;28;20609;-76
2023/12/28 04:13:05;;;;;;;1.17;1.07;;;19.50;46.90;;;;;;4979656;28;20634;-76
2023/12/28 04:15:31;;;;;;;1.03;0.90;;;19.50;46.90;;;;;;4991655;28;20704;-75
2023/12/28 04:17:57;;;;;;;1.20;1.10;;;19.40;46.80;;;;;;4993360;28;20223;-76
2023/12/28 04:20:22;;;;;;;1.07;1.07;;;19.40;46.70;;;;;;4990725;28;20244;-70
2023/12/28 04:22:48;;;;;;;0.93;0.90;;;19.50;46.90;;;;;;4989337;28;20988;-71
2023/12/28 04:25:16;;;;;;;1.23;1.13;;;19.50;46.90;;;;;;4986155;28;20230;-72
2023/12/28 04:27:41;;;;;;;1.30;1.20;;;19.50;46.90;;;;;;4991114;28;20643;-70
2023/12/28 04:30:07;;;;;;;0.93;0.93;;;19.50;46.90;;;;;;4990198;28;20463;-70
2023/12/28 04:32:33;;;;;;;1.20;1.10;;;19.40;46.80;;;;;;4993104;28;20232;-70
2023/12/28 04:34:58;;;;;;;0.90;0.90;;;19.50;46.80;;;;;;4977064;28;20234;-70
2023/12/28 04:37:26;;;;;;;1.20;1.10;;;19.50;46.90;;;;;;4977561;28;20325;-70
2023/12/28 04:39:52;;;;;;;1.07;0.97;;;19.50;46.80;;;;;;4975873;28;20710;-70
2023/12/28 04:42:18;;;;;;;1.27;1.17;;;19.50;46.80;;;;;;4975592;28;20450;-73
2023/12/28 04:44:44;;;;;;;0.90;0.90;;;19.40;46.80;;;;;;4990674;28;20446;-70
2023/12/28 04:47:09;;;;;;;1.00;0.90;;;19.40;46.70;;;;;;4978384;28;20220;-70
2023/12/28 04:49:35;;;;;;;1.63;0.90;;;19.40;46.70;;;;;;4990971;28;20641;-70
2023/12/28 04:52:01;;;;;;;1.10;1.00;;;19.50;46.90;;;;;;4985916;28;21273;-72
2023/12/28 04:54:27;;;;;;;1.20;1.10;;;19.50;46.80;;;;;;4986625;28;20680;-72
2023/12/28 04:56:52;;;;;;;1.30;1.20;;;19.40;46.70;;;;;;4992948;28;20276;-70
2023/12/28 04:59:18;;;;;;;1.13;1.03;;;19.50;46.80;;;;;;4990385;28;20421;-72
2023/12/28 05:01:44;;;;;;;1.20;1.10;;;19.50;46.80;;;;;;4986547;28;20240;-71
2023/12/28 05:04:10;;;;;;;1.00;0.90;;;19.50;46.80;;;;;;4993060;28;20683;-70
2023/12/28 05:06:36;;;;;;;1.00;1.00;;;19.50;46.70;;;;;;4982967;28;20369;-70
2023/12/28 05:09:02;;;;;;;1.23;1.13;;;19.50;46.70;;;;;;4983637;28;20943;-71
2023/12/28 05:11:27;;;;;;;0.90;0.90;;;19.50;46.70;;;;;;4985897;28;20303;-71
2023/12/28 05:13:53;;;;;;;0.90;0.90;;;19.50;46.70;;;;;;4994809;28;20575;-70
2023/12/28 05:16:19;;;;;;;2.67;0.90;;;19.50;46.70;;;;;;4975402;28;20216;-70
2023/12/28 05:18:48;;;;;;;1.10;1.00;;;19.50;46.60;;;;;;4972509;28;20259;-70
2023/12/28 05:21:14;;;;;;;0.90;0.90;;;19.50;46.70;;;;;;4978729;28;20463;-69
2023/12/28 05:23:39;;;;;;;1.20;1.10;;;19.50;46.70;;;;;;4992054;28;21075;-71
2023/12/28 05:26:06;;;;;;;1.03;0.93;;;19.50;46.70;;;;;;4976114;28;20220;-70
2023/12/28 05:28:31;;;;;;;1.10;1.00;;;19.50;46.60;;;;;;4983736;28;20220;-73
2023/12/28 05:30:58;;;;;;;0.97;0.97;;;19.50;46.60;;;;;;4983001;28;20971;-72
2023/12/28 05:33:25;;;;;;;1.30;1.20;;;19.50;46.60;;;;;;4984232;28;20232;-72
2023/12/28 05:35:50;;;;;;;1.10;1.00;;;19.50;46.60;;;;;;4988250;28;20464;-72
2023/12/28 05:38:16;;;;;;;1.10;1.00;;;19.50;46.50;;;;;;4973248;28;20908;-72
2023/12/28 05:40:42;;;;;;;1.40;1.30;;;19.50;46.50;;;;;;4989449;28;20281;-72
2023/12/28 05:43:08;;;;;;;1.10;1.00;;;19.50;46.50;;;;;;4978023;28;20229;-72
2023/12/28 05:45:34;;;;;;;0.83;0.83;;;19.50;46.50;;;;;;4987756;28;20451;-71
2023/12/28 05:47:59;;;;;;;0.97;0.90;;;19.50;46.50;;;;;;4988171;28;20308;-71
2023/12/28 05:50:25;;;;;;;0.90;0.87;;;19.50;46.50;;;;;;4996246;28;20267;-72
2023/12/28 05:52:50;;;;;;;1.10;1.00;;;19.50;46.50;;;;;;4991123;28;20234;-71
2023/12/28 05:55:16;;;;;;;1.10;1.00;;;19.50;46.40;;;;;;4978255;28;20231;-71
2023/12/28 05:57:41;;;;;;;1.10;1.00;;;19.50;46.50;;;;;;4976808;28;20252;-71
2023/12/28 06:00:09;;;;;;;0.87;0.87;;;19.50;46.40;;;;;;4985696;28;20621;-71
2023/12/28 06:02:35;;;;;;;0.97;0.90;;;19.50;46.40;;;;;;4991474;28;20592;-71
2023/12/28 06:05:01;;;;;;;2.50;1.37;;;19.50;46.40;;;;;;4972249;28;20466;-71
2023/12/28 06:07:26;;;;;;;1.10;1.10;;;19.50;46.30;;;;;;4984924;28;20245;-71
2023/12/28 06:09:52;;;;;;;1.67;1.20;;;19.50;46.40;;;;;;4985320;28;20227;-72
2023/12/28 06:12:17;;;;;;;1.10;1.00;;;19.50;46.20;;;;;;4980053;28;20239;-71
2023/12/28 06:14:43;;;;;;;1.00;0.90;;;19.60;46.30;;;;;;4972454;28;20224;-72
2023/12/28 06:17:08;;;;;;;1.10;1.00;;;19.60;46.20;;;;;;4990275;28;20620;-72
2023/12/28 06:19:34;;;;;;;1.40;1.30;;;19.60;46.30;;;;;;4982695;28;20705;-72
2023/12/28 06:21:59;;;;;;;1.10;1.00;;;19.60;46.30;;;;;;4977686;28;20286;-71
2023/12/28 06:24:25;;;;;;;1.13;0.80;;;19.60;46.30;;;;;;4985336;28;20227;-72
2023/12/28 06:26:50;;;;;;;1.00;0.90;;;19.60;46.40;;;;;;4980743;28;20306;-71
2023/12/28 06:29:16;;;;;;;1.10;1.00;;;19.60;46.40;;;;;;4968954;28;20589;-71
2023/12/28 06:31:41;;;;;;;1.20;1.10;;;19.60;46.50;;;;;;4989532;28;20215;-71
2023/12/28 06:34:07;;;;;;;1.10;1.00;;;19.50;46.30;;;;;;4984803;28;20222;-71
2023/12/28 06:36:33;;;;;;;1.10;0.90;;;19.60;46.30;;;;;;4979921;28;20714;-72
2023/12/28 06:38:59;;;;;;;1.17;1.07;;;19.50;46.30;;;;;;4977751;28;20296;-74
2023/12/28 06:41:25;;;;;;;1.30;0.93;;;19.50;46.20;;;;;;4990201;28;20211;-74
2023/12/28 06:43:52;;;;;;;1.00;0.90;;;19.60;46.40;;;;;;4978502;28;20235;-71
2023/12/28 06:46:18;;;;;;;1.20;1.10;;;19.60;46.30;;;;;;4982825;28;20982;-73
2023/12/28 06:48:44;;;;;;;1.13;1.03;;;19.60;46.40;;;;;;4985339;28;20536;-74
2023/12/28 06:51:15;;;;;;;1.07;0.97;;;19.60;46.30;;;;;;4984053;28;20460;-75
2023/12/28 06:53:41;;;;;;;1.17;1.07;;;19.60;46.30;;;;;;4987625;28;20219;-75
2023/12/28 06:56:07;;;;;;;1.10;0.90;;;19.60;46.40;;;;;;4984749;28;20476;-75
2023/12/28 06:58:33;;;;;;;1.27;1.07;;;19.50;46.20;;;;;;4982924;28;20224;-75
2023/12/28 07:00:58;;;;;;;1.00;0.90;;;19.60;46.30;;;;;;4978817;28;20434;-73
2023/12/28 07:03:25;;;;;;;1.33;1.17;;;19.60;46.30;;;;;;4980451;28;20327;-76
2023/12/28 07:05:51;;;;;;;1.00;0.90;;;19.60;46.30;;;;;;4982504;28;20393;-77
2023/12/28 07:08:17;;;;;;;1.30;1.20;;;19.60;46.30;;;;;;4967416;28;20436;-77
2023/12/28 07:10:42;;;;;;;1.30;1.20;;;19.60;46.30;;;;;;4979466;28;20710;-77
2023/12/28 07:13:10;;;;;;;1.27;1.10;;;19.60;46.30;;;;;;4977182;28;20318;-75
2023/12/28 07:15:36;;;;;;;1.30;0.90;;;19.60;46.30;;;;;;4971083;28;20738;-74
2023/12/28 07:18:01;;;;;;;1.87;0.93;;;19.60;46.30;;;;;;4984088;28;20526;-78
2023/12/28 07:20:27;;;;;;;1.10;1.00;;;19.60;46.30;;;;;;4993400;28;20231;-77
2023/12/28 07:22:52;;;;;;;1.17;1.00;;;19.60;46.30;;;;;;4985704;28;20304;-75
2023/12/28 07:25:18;;;;;;;0.93;0.93;;;19.60;46.30;;;;;;4975641;28;20223;-77
2023/12/28 07:27:44;;;;;;;0.97;0.90;;;19.60;46.40;;;;;;4984140;28;20824;-77
2023/12/28 07:30:10;;;;;;;0.83;0.80;;;19.60;46.40;;;;;;4975120;28;23266;-77
2023/12/28 07:32:36;;;;;;;1.77;1.00;;;19.60;46.40;;;;;;4971468;28;20791;-76
2023/12/28 07:35:01;;;;;;;0.80;0.80;;;19.60;46.40;;;;;;4954005;28;1035053;-77
2023/12/28 07:37:27;;;;;;;1.10;1.00;;;19.60;46.40;;;;;;4991206;28;20340;-76
2023/12/28 07:39:53;;;;;;;1.10;1.00;;;19.60;46.40;;;;;;4989608;28;20231;-76
2023/12/28 07:42:18;;;;;;;4.20;1.20;;;19.60;46.40;;;;;;4985280;28;20684;-76
2023/12/28 07:44:44;;;;;;;1.20;1.10;;;19.60;46.40;;;;;;4982031;28;20445;-74
2023/12/28 07:47:11;;;;;;;1.07;0.97;;;19.60;46.40;;;;;;4983986;28;20227;-78
2023/12/28 07:49:37;;;;;;;1.00;0.90;;;19.60;46.40;;;;;;4978353;28;20232;-76
2023/12/28 07:52:02;;;;;;;1.57;0.93;;;19.60;46.80;;;;;;4992265;28;20475;-77
2023/12/28 07:54:31;;;;;;;0.80;0.70;;;19.60;46.40;;;;;;4981587;28;20683;-75
2023/12/28 07:56:57;;;;;;;1.50;0.90;;;19.60;46.50;;;;;;4986501;28;20303;-74
2023/12/28 07:59:22;;;;;;;1.10;1.00;;;19.60;46.50;;;;;;4989807;28;20530;-76
2023/12/28 08:01:48;;;;;;;1.07;0.97;;;19.60;46.50;;;;;;4973637;28;20227;-77
2023/12/28 08:04:14;;;;;;;1.10;0.97;;;19.60;46.50;;;;;;4989137;28;20726;-75
2023/12/28 08:06:39;;;;;;;1.33;1.23;;;19.60;46.50;;;;;;4986024;28;20215;-77
2023/12/28 08:09:05;;;;;;;1.07;0.97;;;19.60;46.50;;;;;;4989765;28;20527;-77
2023/12/28 08:11:30;;;;;;;1.20;1.00;;;19.60;46.60;;;;;;4990422;28;20222;-77
2023/12/28 08:13:56;;;;;;;2.07;1.20;;;19.60;46.50;;;;;;4975058;28;20946;-76
2023/12/28 08:16:22;;;;;;;2.00;1.50;;;19.60;46.50;;;;;;4977331;28;20278;-74
2023/12/28 08:18:47;;;;;;;1.30;1.10;;;19.60;46.60;;;;;;4973367;28;20785;-75
2023/12/28 08:21:16;;;;;;;3.53;1.10;;;19.60;46.50;;;;;;4993639;28;20294;-75
2023/12/28 08:23:41;;;;;;;1.10;1.00;;;19.60;46.60;;;;;;4975682;28;20219;-77
2023/12/28 08:26:07;;;;;;;1.40;1.13;;;19.60;46.60;;;;;;4985882;28;20439;-75
2023/12/28 08:28:33;;;;;;;1.43;1.00;;;19.60;46.60;;;;;;4973994;28;20216;-76
2023/12/28 08:30:58;;;;;;;1.40;1.30;;;19.60;46.60;;;;;;4979229;28;20246;-76
2023/12/28 08:33:24;;;;;;;1.70;1.20;;;19.60;46.70;;;;;;4965557;28;20711;-76
2023/12/28 08:35:49;;;;;;;1.40;1.00;;;19.60;46.60;;;;;;4979574;28;20247;-76
2023/12/28 08:38:15;;;;;;;1.60;1.20;;;19.60;46.60;;;;;;4990197;28;20747;-74
2023/12/28 08:40:41;;;;;;;1.33;1.03;;;19.60;46.60;;;;;;4990835;28;20220;-75
2023/12/28 08:43:07;;;;;;;1.63;1.10;;;19.60;46.70;;;;;;4988986;28;20223;-76
2023/12/28 08:45:34;;;;;;;2.27;0.93;;;19.60;46.70;;;;;;4987739;28;20228;-75
2023/12/28 08:47:59;;;;;;;1.30;1.20;;;19.60;46.70;;;;;;4985236;28;20215;-76
2023/12/28 08:50:25;;;;;;;2.10;1.13;;;19.60;46.70;;;;;;4994248;28;20450;-76
2023/12/28 08:52:51;;;;;;;1.70;1.10;;;19.60;46.70;;;;;;4973210;28;20292;-75
2023/12/28 08:55:16;;;;;;;2.20;1.07;;;19.60;46.60;;;;;;4981014;28;20224;-75
2023/12/28 08:57:42;;;;;;;1.60;1.50;;;19.60;46.60;;;;;;4977112;28;20296;-76
2023/12/28 09:00:08;;;;;;;1.23;1.13;;;19.70;46.60;;;;;;4993372;28;20216;-74
2023/12/28 09:02:33;;;;;;;1.20;1.10;;;19.70;46.60;;;;;;4984710;28;20223;-73
2023/12/28 09:05:00;;;;;;;1.40;1.10;;;19.70;46.60;;;;;;4972161;28;20456;-73
2023/12/28 09:07:26;;;;;;;1.10;0.90;;;19.70;46.60;;;;;;4989014;28;20227;-73
2023/12/28 09:09:52;;;;;;;2.50;1.20;;;19.70;46.50;;;;;;4989526;28;20485;-73
2023/12/28 09:12:17;;;;;;;3.20;1.10;;;19.70;46.50;;;;;;4967985;28;20236;-73
2023/12/28 09:14:43;;;;;;;1.70;1.10;;;19.70;46.60;;;;;;4990737;28;20556;-74
2023/12/28 09:17:08;;;;;;;3.63;1.50;;;19.70;46.50;;;;;;4978144;28;20231;-74
2023/12/28 09:19:34;;;;;;;4.13;1.30;;;19.70;46.50;;;;;;4982460;28;20232;-74
2023/12/28 09:21:59;;;;;;;1.60;1.27;;;19.70;46.60;;;;;;4990926;28;20697;-72
2023/12/28 09:24:25;;;;;;;3.10;1.50;;;19.70;46.60;;;;;;4982856;28;20665;-73
2023/12/28 09:26:50;;;;;;;1.90;1.20;;;19.70;46.60;;;;;;4986570;28;20220;-73
2023/12/28 09:29:16;;;;;;;1.63;1.13;;;19.70;46.60;;;;;;4985601;28;20214;-73
2023/12/28 09:31:41;;;;;;;1.50;1.10;;;19.70;46.60;;;;;;4987908;28;20220;-74
2023/12/28 09:34:07;;;;;;;1.53;1.43;;;19.70;46.60;;;;;;4990651;28;20277;-74
2023/12/28 09:36:32;;;;;;;1.20;1.00;;;19.70;46.70;;;;;;4972794;28;23351;-74
2023/12/28 09:38:58;;;;;;;1.40;1.20;;;19.70;46.60;;;;;;4992238;28;20668;-73
2023/12/28 09:41:26;;;;;;;1.53;1.10;;;19.70;46.70;;;;;;4991196;28;20208;-74
2023/12/28 09:44:09;;;;;;;1.10;1.00;;;19.70;46.70;;;;;;4985734;28;20674;-74
2023/12/28 09:46:35;;;;;;;1.13;1.03;;;19.70;46.60;;;;;;4986989;28;20448;-73
2023/12/28 09:49:02;;;;;;;2.10;1.10;;;19.70;46.70;;;;;;4992627;28;20582;-73
2023/12/28 09:51:27;;;;;;;1.10;0.93;;;19.70;46.70;;;;;;4989235;28;20456;-74
2023/12/28 09:53:53;;;;;;;2.53;1.10;;;19.70;46.70;;;;;;4980512;28;20421;-74
2023/12/28 09:56:20;;;;;;;1.57;1.00;;;19.70;46.70;;;;;;4984267;28;20223;-73
2023/12/28 09:58:49;;;;;;;2.73;1.10;;;19.70;46.70;;;;;;4981746;28;20443;-73
2023/12/28 10:01:15;;;;;;;3.27;1.20;;;19.70;46.70;;;;;;4960324;28;20539;-74
2023/12/28 10:03:40;;;;;;;1.10;1.00;;;19.70;46.70;;;;;;4982368;28;20451;-73
2023/12/28 10:06:06;;;;;;;1.17;1.00;;;19.70;46.70;;;;;;4971216;28;20529;-73
2023/12/28 10:08:32;;;;;;;1.93;1.13;;;19.70;46.70;;;;;;4990082;28;20224;-76
2023/12/28 10:10:58;;;;;;;2.80;0.93;;;19.70;46.70;;;;;;4966955;28;20232;-76
2023/12/28 10:13:25;;;;;;;3.23;1.03;;;19.70;46.70;;;;;;4970232;28;20642;-76
2023/12/28 10:15:50;;;;;;;2.33;1.00;;;19.70;46.70;;;;;;4986093;28;20440;-76
2023/12/28 10:18:19;;;;;;;1.17;1.00;;;19.70;46.70;;;;;;4990521;28;20452;-76
2023/12/28 10:20:52;;;;;;;1.50;1.00;;;19.70;46.70;;;;;;4987532;28;20789;-75
2023/12/28 10:23:19;;;;;;;1.47;0.70;;;19.70;46.70;;;;;;4982177;28;20443;-76
2023/12/28 10:25:46;;;;;;;4.10;1.50;;;19.70;46.70;;;;;;4981715;28;20442;-74
2023/12/28 10:28:15;;;;;;;2.37;1.50;;;19.70;46.60;;;;;;4963999;28;20484;-76
2023/12/28 10:30:41;;;;;;;1.80;1.20;;;19.70;46.60;;;;;;4978500;28;20451;-76
2023/12/28 10:33:06;;;;;;;1.30;1.20;;;19.70;46.60;;;;;;4977230;28;20440;-73
2023/12/28 10:35:32;;;;;;;1.70;1.00;;;19.70;46.60;;;;;;4988925;28;20810;-75
2023/12/28 10:38:02;;;;;;;4.13;1.50;;;19.70;46.50;;;;;;4990267;28;21006;-76
2023/12/28 10:40:27;;;;;;;2.17;1.00;;;19.70;46.40;;;;;;4979241;28;20646;-77
2023/12/28 10:43:04;;;;;;;1.03;0.80;;;19.70;46.50;;;;;;4985769;28;20540;-75
2023/12/28 10:45:32;;;;;;;1.20;1.10;;;19.70;46.70;;;;;;4973861;28;20292;-76
2023/12/28 10:48:09;;;;;;;1.03;0.93;;;19.70;46.40;;;;;;4991841;28;23196;-75
2023/12/28 10:50:40;;;;;;;1.10;1.00;;;19.70;46.50;;;;;;4981304;28;20473;-76
2023/12/28 10:53:40;;;;;;;4.93;1.10;;;19.70;46.40;;;;;;4985622;28;20558;-75
2023/12/28 10:56:27;;;;;;;1.10;1.00;;;19.70;46.40;;;;;;4988769;28;20453;-75
2023/12/28 10:59:28;;;;;;;1.40;1.20;;;19.70;46.40;;;;;;4985923;28;20479;-75
2023/12/28 11:01:56;;;;;;;2.73;1.43;;;19.70;46.40;;;;;;5008200;28;20511;-73
2023/12/28 11:04:45;;;;;;;4.20;1.83;;;19.70;46.40;;;;;;4990157;28;20587;-76
2023/12/28 11:07:14;;;;;;;1.20;1.00;;;19.80;46.10;;;;;;4984968;28;20428;-75
2023/12/28 11:09:42;;;;;;;0.97;0.87;;;19.80;45.90;;;;;;4977718;28;21279;-75
2023/12/28 11:12:11;;;;;;;0.90;0.90;;;19.80;45.90;;;;;;4984036;28;20828;-75
2023/12/28 11:14:41;;;;;;;1.40;1.00;;;19.80;45.90;;;;;;4984733;28;20812;-75
2023/12/28 11:17:08;;;;;;;2.20;1.00;;;19.80;46.00;;;;;;4965599;28;21231;-74
2023/12/28 11:19:35;;;;;;;1.10;0.90;;;19.80;46.00;;;;;;4980406;28;20475;-73
2023/12/28 11:22:05;;;;;;;2.70;1.40;;;19.80;46.00;;;;;;4977858;28;21013;-72
2023/12/28 11:24:32;;;;;;;3.70;1.23;;;19.80;45.80;;;;;;4979317;28;20424;-74
2023/12/28 11:26:57;;;;;;;2.00;1.10;;;19.80;45.30;;;;;;4989083;28;21018;-72
2023/12/28 11:29:24;;;;;;;2.40;1.20;;;19.90;45.30;;;;;;4982457;28;20448;-73
2023/12/28 11:31:57;;;;;;;1.10;1.00;;;19.90;45.40;;;;;;4991972;28;20374;-74
2023/12/28 11:34:28;;;;;;;4.23;1.10;;;19.80;45.40;;;;;;4988057;28;20453;-73
2023/12/28 11:36:56;;;;;;;3.83;1.10;;;19.80;45.50;;;;;;4965633;28;20428;-73
2023/12/28 11:39:36;;;;;;;1.00;0.90;;;19.80;45.70;;;;;;4979588;28;20448;-73
2023/12/28 11:42:03;;;;;;;1.70;1.10;;;19.80;45.70;;;;;;4976517;28;20459;-73
2023/12/28 11:44:38;;;;;;;1.27;1.17;;;19.80;45.80;;;;;;4992225;28;21249;-72
2023/12/28 11:47:14;;;;;;;1.30;1.10;;;19.80;45.80;;;;;;4989780;28;20515;-73
2023/12/28 11:49:40;;;;;;;1.70;1.10;;;19.80;45.90;;;;;;4989548;28;21098;-73
2023/12/28 11:52:07;;;;;;;1.90;1.07;;;19.80;45.90;;;;;;4989161;28;20466;-74
2023/12/28 11:54:32;;;;;;;1.10;0.90;;;19.80;46.00;;;;;;4979979;28;21399;-74
2023/12/28 11:56:58;;;;;;;2.10;1.30;;;19.80;46.00;;;;;;4985824;28;20976;-75
2023/12/28 11:59:23;;;;;;;1.67;1.57;;;19.80;46.00;;;;;;4968801;28;20220;-74
2023/12/28 12:01:52;;;;;;;1.30;1.00;;;19.80;46.00;;;;;;4977284;28;20359;-74
2023/12/28 12:04:21;;;;;;;1.40;1.10;;;19.80;46.00;;;;;;4969145;28;20716;-76
2023/12/28 12:06:47;;;;;;;1.30;1.00;;;19.80;46.10;;;;;;4986330;28;20475;-73
2023/12/28 12:09:16;;;;;;;2.17;1.37;;;19.80;46.10;;;;;;4974401;28;20436;-73
2023/12/28 12:11:41;;;;;;;1.20;0.90;;;19.80;46.10;;;;;;4991169;28;20457;-74
2023/12/28 12:14:11;;;;;;;1.93;1.40;;;19.80;46.10;;;;;;4986149;28;21049;-74
2023/12/28 12:16:37;;;;;;;1.10;1.00;;;19.80;46.10;;;;;;4977633;28;20792;-74
2023/12/28 12:19:04;;;;;;;2.20;1.00;;;19.80;46.10;;;;;;4978280;28;20803;-74
2023/12/28 12:21:30;;;;;;;1.27;1.00;;;19.80;46.10;;;;;;4964100;28;20551;-74
2023/12/28 12:23:55;;;;;;;1.07;0.97;;;19.70;46.10;;;;;;4974019;28;21083;-74
2023/12/28 12:26:21;;;;;;;2.30;1.17;;;19.70;46.10;;;;;;4987596;28;20239;-73
2023/12/28 12:28:48;;;;;;;1.97;1.00;;;19.80;46.10;;;;;;4974749;28;20239;-74
2023/12/28 12:31:14;;;;;;;1.10;1.00;;;19.80;46.10;;;;;;4987578;28;20228;-73
2023/12/28 12:33:40;;;;;;;1.20;0.90;;;19.70;46.00;;;;;;4982737;28;20542;-74
2023/12/28 12:36:08;;;;;;;1.00;0.90;;;19.80;46.00;;;;;;4983389;28;20455;-74
2023/12/28 12:38:34;;;;;;;1.00;0.90;;;19.80;46.00;;;;;;4991412;28;20216;-74
2023/12/28 12:40:59;;;;;;;1.90;1.07;;;19.70;45.90;;;;;;4979380;28;20779;-74
2023/12/28 12:43:26;;;;;;;1.37;1.10;;;19.70;46.00;;;;;;4986382;28;20507;-73
2023/12/28 12:45:52;;;;;;;5.10;1.40;;;19.80;46.00;;;;;;4983393;28;20235;-74